sensor_id;sensor_type;location;lat;lon;timestamp;temperature;humidity
9975;DHT22;5028;50.974;4.968;2023-03-13T00:01:50;10.60;99.90
9975;DHT22;5028;50.974;4.968;2023-03-13T00:04:26;10.60;99.90
9975;DHT22;5028;50.974;4.968;2023-03-13T00:06:56;10.60;99.90
9975;DHT22;5028;50.974;4.968;2023-03-13T00:09:37;10.60;99.90
9975;DHT22;5028;50.974;4.968;2023-03-13T00:12:12;10.60;99.90
9975;DHT22;5028;50.974;4.968;2023-03-13T00:14:41;10.50;99.90
9975;DHT22;5028;50.974;4.968;2023-03-13T00:17:16;10.50;99.90
9975;DHT22;5028;50.974;4.968;2023-03-13T00:19:51;10.50;99.90
9975;DHT22;5028;50.974;4.968;2023-03-13T00:22:23;10.50;99.90
9975;DHT22;5028;50.974;4.968;2023-03-13T00:24:58;10.60;99.90
9975;DHT22;5028;50.974;4.968;2023-03-13T00:27:33;10.50;99.90
9975;DHT22;5028;50.974;4.968;2023-03-13T00:30:03;10.60;99.90
9975;DHT22;5028;50.974;4.968;2023-03-13T00:32:40;10.60;99.90
9975;DHT22;5028;50.974;4.968;2023-03-13T00:35:15;10.50;99.90
9975;DHT22;5028;50.974;4.968;2023-03-13T00:37:46;10.60;99.90
9975;DHT22;5028;50.974;4.968;2023-03-13T00:40:21;10.60;99.90
9975;DHT22;5028;50.974;4.968;2023-03-13T00:42:56;10.60;99.90
9975;DHT22;5028;50.974;4.968;2023-03-13T00:45:25;10.60;99.90
9975;DHT22;5028;50.974;4.968;2023-03-13T00:48:00;10.60;99.90
9975;DHT22;5028;50.974;4.968;2023-03-13T00:50:35;10.60;99.90
9975;DHT22;5028;50.974;4.968;2023-03-13T00:53:06;10.60;99.90
9975;DHT22;5028;50.974;4.968;2023-03-13T00:55:53;10.60;99.90
9975;DHT22;5028;50.974;4.968;2023-03-13T00:58:23;10.70;99.90
9975;DHT22;5028;50.974;4.968;2023-03-13T01:01:05;10.60;99.90
9975;DHT22;5028;50.974;4.968;2023-03-13T01:03:38;10.70;99.90
9975;DHT22;5028;50.974;4.968;2023-03-13T01:06:17;10.70;99.90
9975;DHT22;5028;50.974;4.968;2023-03-13T01:08:48;10.70;99.90
9975;DHT22;5028;50.974;4.968;2023-03-13T01:11:25;10.70;99.90
9975;DHT22;5028;50.974;4.968;2023-03-13T01:13:54;10.50;99.90
9975;DHT22;5028;50.974;4.968;2023-03-13T01:16:31;10.50;99.90
9975;DHT22;5028;50.974;4.968;2023-03-13T01:19:02;10.50;99.90
9975;DHT22;5028;50.974;4.968;2023-03-13T01:21:39;10.50;99.90
9975;DHT22;5028;50.974;4.968;2023-03-13T01:24:16;10.50;99.90
9975;DHT22;5028;50.974;4.968;2023-03-13T01:26:46;10.50;99.90
9975;DHT22;5028;50.974;4.968;2023-03-13T01:29:20;10.60;99.90
9975;DHT22;5028;50.974;4.968;2023-03-13T01:31:55;10.60;99.90
9975;DHT22;5028;50.974;4.968;2023-03-13T01:34:24;10.60;99.90
9975;DHT22;5028;50.974;4.968;2023-03-13T01:36:59;10.60;99.90
9975;DHT22;5028;50.974;4.968;2023-03-13T01:39:36;10.70;99.90
9975;DHT22;5028;50.974;4.968;2023-03-13T01:42:05;10.70;99.90
9975;DHT22;5028;50.974;4.968;2023-03-13T01:44:50;10.80;99.90
9975;DHT22;5028;50.974;4.968;2023-03-13T01:47:24;10.80;99.90
9975;DHT22;5028;50.974;4.968;2023-03-13T01:49:53;10.80;99.90
9975;DHT22;5028;50.974;4.968;2023-03-13T01:52:29;10.80;99.90
9975;DHT22;5028;50.974;4.968;2023-03-13T01:55:08;10.80;99.90
9975;DHT22;5028;50.974;4.968;2023-03-13T01:57:41;10.90;99.90
9975;DHT22;5028;50.974;4.968;2023-03-13T02:00:23;10.90;99.90
9975;DHT22;5028;50.974;4.968;2023-03-13T02:03:01;10.90;99.90
9975;DHT22;5028;50.974;4.968;2023-03-13T02:05:32;10.90;99.90
9975;DHT22;5028;50.974;4.968;2023-03-13T02:08:12;11.00;99.90
9975;DHT22;5028;50.974;4.968;2023-03-13T02:11:00;11.00;99.90
9975;DHT22;5028;50.974;4.968;2023-03-13T02:13:39;11.00;99.90
9975;DHT22;5028;50.974;4.968;2023-03-13T02:16:08;11.00;99.90
9975;DHT22;5028;50.974;4.968;2023-03-13T02:18:43;11.00;99.90
9975;DHT22;5028;50.974;4.968;2023-03-13T02:21:17;11.00;99.90
9975;DHT22;5028;50.974;4.968;2023-03-13T02:23:57;11.00;99.90
9975;DHT22;5028;50.974;4.968;2023-03-13T02:26:37;11.10;99.90
9975;DHT22;5028;50.974;4.968;2023-03-13T02:29:06;11.10;99.90
9975;DHT22;5028;50.974;4.968;2023-03-13T02:31:42;11.10;99.90
9975;DHT22;5028;50.974;4.968;2023-03-13T02:34:12;11.10;99.90
9975;DHT22;5028;50.974;4.968;2023-03-13T02:36:49;11.10;99.90
9975;DHT22;5028;50.974;4.968;2023-03-13T02:39:19;11.10;99.90
9975;DHT22;5028;50.974;4.968;2023-03-13T02:41:57;11.20;99.90
9975;DHT22;5028;50.974;4.968;2023-03-13T02:44:27;11.20;99.90
9975;DHT22;5028;50.974;4.968;2023-03-13T02:46:55;11.20;99.90
9975;DHT22;5028;50.974;4.968;2023-03-13T02:49:31;11.30;99.90
9975;DHT22;5028;50.974;4.968;2023-03-13T02:52:11;11.30;99.90
9975;DHT22;5028;50.974;4.968;2023-03-13T02:54:49;11.40;99.90
9975;DHT22;5028;50.974;4.968;2023-03-13T02:57:20;11.40;99.90
9975;DHT22;5028;50.974;4.968;2023-03-13T02:59:56;11.40;99.90
9975;DHT22;5028;50.974;4.968;2023-03-13T03:02:31;11.50;99.90
9975;DHT22;5028;50.974;4.968;2023-03-13T03:04:59;11.60;99.90
9975;DHT22;5028;50.974;4.968;2023-03-13T03:07:41;11.60;99.90
9975;DHT22;5028;50.974;4.968;2023-03-13T03:10:24;11.70;99.90
9975;DHT22;5028;50.974;4.968;2023-03-13T03:13:01;11.70;99.90
9975;DHT22;5028;50.974;4.968;2023-03-13T03:15:36;11.70;99.90
9975;DHT22;5028;50.974;4.968;2023-03-13T03:18:05;11.80;99.90
9975;DHT22;5028;50.974;4.968;2023-03-13T03:20:41;11.80;99.90
9975;DHT22;5028;50.974;4.968;2023-03-13T03:23:16;11.80;99.90
9975;DHT22;5028;50.974;4.968;2023-03-13T03:25:44;11.90;99.90
9975;DHT22;5028;50.974;4.968;2023-03-13T03:28:21;11.90;99.90
9975;DHT22;5028;50.974;4.968;2023-03-13T03:30:55;12.00;99.90
9975;DHT22;5028;50.974;4.968;2023-03-13T03:33:24;12.00;99.90
9975;DHT22;5028;50.974;4.968;2023-03-13T03:36:00;12.10;99.90
9975;DHT22;5028;50.974;4.968;2023-03-13T03:38:29;12.10;99.90
9975;DHT22;5028;50.974;4.968;2023-03-13T03:40:58;12.20;99.90
9975;DHT22;5028;50.974;4.968;2023-03-13T03:43:34;12.20;99.90
9975;DHT22;5028;50.974;4.968;2023-03-13T03:46:03;12.20;99.90
9975;DHT22;5028;50.974;4.968;2023-03-13T03:48:41;12.30;99.90
9975;DHT22;5028;50.974;4.968;2023-03-13T03:51:15;12.30;99.90
9975;DHT22;5028;50.974;4.968;2023-03-13T03:53:44;12.30;99.90
9975;DHT22;5028;50.974;4.968;2023-03-13T03:56:13;12.40;99.90
9975;DHT22;5028;50.974;4.968;2023-03-13T03:58:50;12.40;99.90
9975;DHT22;5028;50.974;4.968;2023-03-13T04:01:18;12.40;99.90
9975;DHT22;5028;50.974;4.968;2023-03-13T04:03:47;12.50;99.90
9975;DHT22;5028;50.974;4.968;2023-03-13T04:06:22;12.50;99.90
9975;DHT22;5028;50.974;4.968;2023-03-13T04:08:51;12.50;99.90
9975;DHT22;5028;50.974;4.968;2023-03-13T04:11:40;12.50;99.90
9975;DHT22;5028;50.974;4.968;2023-03-13T04:14:17;12.50;99.90
9975;DHT22;5028;50.974;4.968;2023-03-13T04:16:46;12.50;99.90
9975;DHT22;5028;50.974;4.968;2023-03-13T04:19:22;12.50;99.90
9975;DHT22;5028;50.974;4.968;2023-03-13T04:21:51;12.60;99.90
9975;DHT22;5028;50.974;4.968;2023-03-13T04:24:26;12.60;99.90
9975;DHT22;5028;50.974;4.968;2023-03-13T04:27:00;12.60;99.90
9975;DHT22;5028;50.974;4.968;2023-03-13T04:29:33;12.60;99.90
9975;DHT22;5028;50.974;4.968;2023-03-13T04:32:08;12.60;99.90
9975;DHT22;5028;50.974;4.968;2023-03-13T04:34:43;12.70;99.90
9975;DHT22;5028;50.974;4.968;2023-03-13T04:37:12;12.70;99.90
9975;DHT22;5028;50.974;4.968;2023-03-13T04:39:47;12.70;99.90
9975;DHT22;5028;50.974;4.968;2023-03-13T04:42:16;12.70;99.90
9975;DHT22;5028;50.974;4.968;2023-03-13T04:44:46;12.70;99.90
9975;DHT22;5028;50.974;4.968;2023-03-13T04:47:21;12.70;99.90
9975;DHT22;5028;50.974;4.968;2023-03-13T04:49:50;12.70;99.90
9975;DHT22;5028;50.974;4.968;2023-03-13T04:52:18;12.80;99.90
9975;DHT22;5028;50.974;4.968;2023-03-13T04:54:54;12.80;99.90
9975;DHT22;5028;50.974;4.968;2023-03-13T04:57:22;12.80;99.90
9975;DHT22;5028;50.974;4.968;2023-03-13T04:59:53;12.80;99.90
9975;DHT22;5028;50.974;4.968;2023-03-13T05:02:28;12.80;99.90
9975;DHT22;5028;50.974;4.968;2023-03-13T05:04:58;12.80;99.90
9975;DHT22;5028;50.974;4.968;2023-03-13T05:07:33;12.90;99.90
9975;DHT22;5028;50.974;4.968;2023-03-13T05:10:08;12.90;99.90
9975;DHT22;5028;50.974;4.968;2023-03-13T05:12:43;12.90;99.90
9975;DHT22;5028;50.974;4.968;2023-03-13T05:15:20;13.00;99.90
9975;DHT22;5028;50.974;4.968;2023-03-13T05:17:55;13.00;99.90
9975;DHT22;5028;50.974;4.968;2023-03-13T05:20:23;13.00;99.90
9975;DHT22;5028;50.974;4.968;2023-03-13T05:22:58;13.00;99.90
9975;DHT22;5028;50.974;4.968;2023-03-13T05:25:27;13.00;99.90
9975;DHT22;5028;50.974;4.968;2023-03-13T05:28:03;13.10;99.90
9975;DHT22;5028;50.974;4.968;2023-03-13T05:30:33;13.10;99.90
9975;DHT22;5028;50.974;4.968;2023-03-13T05:33:08;13.10;99.90
9975;DHT22;5028;50.974;4.968;2023-03-13T05:35:42;13.10;99.90
9975;DHT22;5028;50.974;4.968;2023-03-13T05:38:11;13.10;99.90
9975;DHT22;5028;50.974;4.968;2023-03-13T05:40:46;13.10;99.90
9975;DHT22;5028;50.974;4.968;2023-03-13T05:43:22;13.10;99.90
9975;DHT22;5028;50.974;4.968;2023-03-13T05:45:52;13.10;99.90
9975;DHT22;5028;50.974;4.968;2023-03-13T05:48:26;13.10;99.90
9975;DHT22;5028;50.974;4.968;2023-03-13T05:51:01;13.10;99.90
9975;DHT22;5028;50.974;4.968;2023-03-13T05:53:30;13.10;99.90
9975;DHT22;5028;50.974;4.968;2023-03-13T05:56:06;13.10;99.90
9975;DHT22;5028;50.974;4.968;2023-03-13T05:58:34;13.10;99.90
9975;DHT22;5028;50.974;4.968;2023-03-13T06:01:10;13.10;99.90
9975;DHT22;5028;50.974;4.968;2023-03-13T06:03:46;13.10;99.90
9975;DHT22;5028;50.974;4.968;2023-03-13T06:06:15;13.10;99.90
9975;DHT22;5028;50.974;4.968;2023-03-13T06:08:56;13.10;99.90
9975;DHT22;5028;50.974;4.968;2023-03-13T06:11:31;13.10;99.90
9975;DHT22;5028;50.974;4.968;2023-03-13T06:14:07;13.00;99.90
9975;DHT22;5028;50.974;4.968;2023-03-13T06:16:44;13.10;99.90
9975;DHT22;5028;50.974;4.968;2023-03-13T06:19:20;13.10;99.90
9975;DHT22;5028;50.974;4.968;2023-03-13T06:21:50;13.10;99.90
9975;DHT22;5028;50.974;4.968;2023-03-13T06:24:26;13.10;99.90
9975;DHT22;5028;50.974;4.968;2023-03-13T06:26:55;13.10;99.90
9975;DHT22;5028;50.974;4.968;2023-03-13T06:29:31;13.10;99.90
9975;DHT22;5028;50.974;4.968;2023-03-13T06:32:08;13.10;99.90
9975;DHT22;5028;50.974;4.968;2023-03-13T06:34:37;13.10;99.90
9975;DHT22;5028;50.974;4.968;2023-03-13T06:37:13;13.10;99.90
9975;DHT22;5028;50.974;4.968;2023-03-13T06:39:48;13.10;99.90
9975;DHT22;5028;50.974;4.968;2023-03-13T06:42:17;13.10;99.90
9975;DHT22;5028;50.974;4.968;2023-03-13T06:44:53;13.20;99.90
9975;DHT22;5028;50.974;4.968;2023-03-13T06:47:31;13.10;99.90
9975;DHT22;5028;50.974;4.968;2023-03-13T06:50:00;13.20;99.90
9975;DHT22;5028;50.974;4.968;2023-03-13T06:52:35;13.10;99.90
9975;DHT22;5028;50.974;4.968;2023-03-13T06:55:11;13.20;99.90
9975;DHT22;5028;50.974;4.968;2023-03-13T06:57:40;13.20;99.90
9975;DHT22;5028;50.974;4.968;2023-03-13T07:00:16;13.20;99.90
9975;DHT22;5028;50.974;4.968;2023-03-13T07:02:53;13.20;99.90
9975;DHT22;5028;50.974;4.968;2023-03-13T07:05:21;13.20;99.90
9975;DHT22;5028;50.974;4.968;2023-03-13T07:08:03;13.20;99.90
9975;DHT22;5028;50.974;4.968;2023-03-13T07:10:45;13.20;99.90
9975;DHT22;5028;50.974;4.968;2023-03-13T07:13:25;13.20;99.90
9975;DHT22;5028;50.974;4.968;2023-03-13T07:16:01;13.20;99.90
9975;DHT22;5028;50.974;4.968;2023-03-13T07:18:34;13.30;99.90
9975;DHT22;5028;50.974;4.968;2023-03-13T07:21:10;13.30;99.90
9975;DHT22;5028;50.974;4.968;2023-03-13T07:23:46;13.30;99.90
9975;DHT22;5028;50.974;4.968;2023-03-13T07:26:15;13.30;99.90
9975;DHT22;5028;50.974;4.968;2023-03-13T07:28:51;13.30;99.90
9975;DHT22;5028;50.974;4.968;2023-03-13T07:31:26;13.40;99.90
9975;DHT22;5028;50.974;4.968;2023-03-13T07:33:57;13.40;99.90
9975;DHT22;5028;50.974;4.968;2023-03-13T07:36:33;13.50;99.90
9975;DHT22;5028;50.974;4.968;2023-03-13T07:39:02;13.50;99.90
9975;DHT22;5028;50.974;4.968;2023-03-13T07:41:38;13.50;99.90
9975;DHT22;5028;50.974;4.968;2023-03-13T07:44:13;13.50;99.90
9975;DHT22;5028;50.974;4.968;2023-03-13T07:46:41;13.50;99.90
9975;DHT22;5028;50.974;4.968;2023-03-13T07:49:18;13.50;99.90
9975;DHT22;5028;50.974;4.968;2023-03-13T07:51:54;13.60;99.90
9975;DHT22;5028;50.974;4.968;2023-03-13T07:54:23;13.60;99.90
9975;DHT22;5028;50.974;4.968;2023-03-13T07:57:00;13.60;99.90
9975;DHT22;5028;50.974;4.968;2023-03-13T07:59:35;13.60;99.90
9975;DHT22;5028;50.974;4.968;2023-03-13T08:02:03;13.70;99.90
9975;DHT22;5028;50.974;4.968;2023-03-13T08:04:34;13.80;99.90
9975;DHT22;5028;50.974;4.968;2023-03-13T08:07:10;13.90;99.90
9975;DHT22;5028;50.974;4.968;2023-03-13T08:09:39;13.90;99.90
9975;DHT22;5028;50.974;4.968;2023-03-13T08:12:21;14.00;99.90
9975;DHT22;5028;50.974;4.968;2023-03-13T08:14:50;14.00;99.90
9975;DHT22;5028;50.974;4.968;2023-03-13T08:17:25;13.90;99.90
9975;DHT22;5028;50.974;4.968;2023-03-13T08:20:06;13.70;99.90
9975;DHT22;5028;50.974;4.968;2023-03-13T08:22:35;13.60;99.90
9975;DHT22;5028;50.974;4.968;2023-03-13T08:25:11;13.60;99.90
9975;DHT22;5028;50.974;4.968;2023-03-13T08:27:46;13.50;99.90
9975;DHT22;5028;50.974;4.968;2023-03-13T08:30:14;13.50;99.90
9975;DHT22;5028;50.974;4.968;2023-03-13T08:32:49;13.50;99.90
9975;DHT22;5028;50.974;4.968;2023-03-13T08:35:27;13.50;99.90
9975;DHT22;5028;50.974;4.968;2023-03-13T08:37:56;13.50;99.90
9975;DHT22;5028;50.974;4.968;2023-03-13T08:40:31;13.60;99.90
9975;DHT22;5028;50.974;4.968;2023-03-13T08:43:06;13.70;99.90
9975;DHT22;5028;50.974;4.968;2023-03-13T08:45:34;13.80;99.90
9975;DHT22;5028;50.974;4.968;2023-03-13T08:48:10;13.90;99.90
9975;DHT22;5028;50.974;4.968;2023-03-13T08:50:40;14.00;99.90
9975;DHT22;5028;50.974;4.968;2023-03-13T08:53:16;14.00;99.90
9975;DHT22;5028;50.974;4.968;2023-03-13T08:55:52;14.00;99.90
9975;DHT22;5028;50.974;4.968;2023-03-13T08:58:20;14.00;99.90
9975;DHT22;5028;50.974;4.968;2023-03-13T09:01:00;14.00;99.90
9975;DHT22;5028;50.974;4.968;2023-03-13T09:03:36;14.10;99.90
9975;DHT22;5028;50.974;4.968;2023-03-13T09:06:07;14.20;99.90
9975;DHT22;5028;50.974;4.968;2023-03-13T09:08:43;14.20;99.90
9975;DHT22;5028;50.974;4.968;2023-03-13T09:11:19;14.20;99.90
9975;DHT22;5028;50.974;4.968;2023-03-13T09:13:55;14.20;99.90
9975;DHT22;5028;50.974;4.968;2023-03-13T09:16:33;14.20;99.90
9975;DHT22;5028;50.974;4.968;2023-03-13T09:19:02;14.10;99.90
9975;DHT22;5028;50.974;4.968;2023-03-13T09:21:38;14.20;99.90
9975;DHT22;5028;50.974;4.968;2023-03-13T09:24:14;14.30;99.90
9975;DHT22;5028;50.974;4.968;2023-03-13T09:26:43;14.40;99.90
9975;DHT22;5028;50.974;4.968;2023-03-13T09:29:27;14.50;99.90
9975;DHT22;5028;50.974;4.968;2023-03-13T09:32:02;14.50;99.90
9975;DHT22;5028;50.974;4.968;2023-03-13T09:34:31;14.60;99.90
9975;DHT22;5028;50.974;4.968;2023-03-13T09:37:07;14.60;99.90
9975;DHT22;5028;50.974;4.968;2023-03-13T09:39:43;14.70;99.90
9975;DHT22;5028;50.974;4.968;2023-03-13T09:42:15;14.70;99.90
9975;DHT22;5028;50.974;4.968;2023-03-13T09:44:54;14.70;99.90
9975;DHT22;5028;50.974;4.968;2023-03-13T09:47:34;14.70;99.90
9975;DHT22;5028;50.974;4.968;2023-03-13T09:50:12;14.70;99.90
9975;DHT22;5028;50.974;4.968;2023-03-13T09:52:53;14.70;99.90
9975;DHT22;5028;50.974;4.968;2023-03-13T09:55:26;14.80;99.90
9975;DHT22;5028;50.974;4.968;2023-03-13T09:58:08;14.80;99.90
9975;DHT22;5028;50.974;4.968;2023-03-13T10:00:39;14.90;99.90
9975;DHT22;5028;50.974;4.968;2023-03-13T10:03:19;15.00;99.90
9975;DHT22;5028;50.974;4.968;2023-03-13T10:05:51;15.00;99.90
9975;DHT22;5028;50.974;4.968;2023-03-13T10:08:36;15.10;99.90
9975;DHT22;5028;50.974;4.968;2023-03-13T10:11:24;15.20;99.90
9975;DHT22;5028;50.974;4.968;2023-03-13T10:14:03;15.10;99.90
9975;DHT22;5028;50.974;4.968;2023-03-13T10:16:37;15.10;99.90
9975;DHT22;5028;50.974;4.968;2023-03-13T10:19:17;15.20;99.90
9975;DHT22;5028;50.974;4.968;2023-03-13T10:21:48;15.30;99.90
9975;DHT22;5028;50.974;4.968;2023-03-13T10:24:32;15.40;99.90
9975;DHT22;5028;50.974;4.968;2023-03-13T10:27:10;15.40;99.90
9975;DHT22;5028;50.974;4.968;2023-03-13T10:29:40;15.40;99.90
9975;DHT22;5028;50.974;4.968;2023-03-13T10:32:16;15.80;99.90
9975;DHT22;5028;50.974;4.968;2023-03-13T10:34:55;15.90;99.90
9975;DHT22;5028;50.974;4.968;2023-03-13T10:37:39;16.00;99.90
9975;DHT22;5028;50.974;4.968;2023-03-13T10:40:20;16.00;99.90
9975;DHT22;5028;50.974;4.968;2023-03-13T10:42:51;15.90;99.90
9975;DHT22;5028;50.974;4.968;2023-03-13T10:45:26;15.90;99.90
9975;DHT22;5028;50.974;4.968;2023-03-13T10:48:11;15.90;99.90
9975;DHT22;5028;50.974;4.968;2023-03-13T10:50:42;15.80;99.90
9975;DHT22;5028;50.974;4.968;2023-03-13T10:53:25;15.80;99.90
9975;DHT22;5028;50.974;4.968;2023-03-13T10:56:07;15.70;99.90
9975;DHT22;5028;50.974;4.968;2023-03-13T10:58:46;15.70;99.90
9975;DHT22;5028;50.974;4.968;2023-03-13T11:01:22;15.70;99.90
9975;DHT22;5028;50.974;4.968;2023-03-13T11:03:53;15.60;99.90
9975;DHT22;5028;50.974;4.968;2023-03-13T11:06:29;15.60;99.90
9975;DHT22;5028;50.974;4.968;2023-03-13T11:09:02;15.70;99.90
9975;DHT22;5028;50.974;4.968;2023-03-13T11:11:48;15.90;99.90
9975;DHT22;5028;50.974;4.968;2023-03-13T11:14:20;15.90;99.90
9975;DHT22;5028;50.974;4.968;2023-03-13T11:16:59;16.20;99.90
9975;DHT22;5028;50.974;4.968;2023-03-13T11:19:57;16.40;99.90
9975;DHT22;5028;50.974;4.968;2023-03-13T11:22:36;16.50;99.90
9975;DHT22;5028;50.974;4.968;2023-03-13T11:25:19;16.60;99.90
9975;DHT22;5028;50.974;4.968;2023-03-13T11:28:08;16.60;99.90
9975;DHT22;5028;50.974;4.968;2023-03-13T11:30:57;16.80;99.90
9975;DHT22;5028;50.974;4.968;2023-03-13T11:33:32;16.80;99.90
9975;DHT22;5028;50.974;4.968;2023-03-13T11:36:16;16.80;99.90
9975;DHT22;5028;50.974;4.968;2023-03-13T11:38:49;16.50;99.90
9975;DHT22;5028;50.974;4.968;2023-03-13T11:41:41;16.30;99.90
9975;DHT22;5028;50.974;4.968;2023-03-13T11:44:22;16.30;99.90
9975;DHT22;5028;50.974;4.968;2023-03-13T11:47:11;16.30;99.90
9975;DHT22;5028;50.974;4.968;2023-03-13T11:49:54;16.40;99.90
9975;DHT22;5028;50.974;4.968;2023-03-13T11:52:46;16.30;99.90
9975;DHT22;5028;50.974;4.968;2023-03-13T12:01:11;16.30;99.90
9975;DHT22;5028;50.974;4.968;2023-03-13T12:03:55;16.40;99.90
9975;DHT22;5028;50.974;4.968;2023-03-13T12:06:29;16.20;99.90
9975;DHT22;5028;50.974;4.968;2023-03-13T12:09:10;16.50;99.90
9975;DHT22;5028;50.974;4.968;2023-03-13T12:11:51;17.00;99.90
9975;DHT22;5028;50.974;4.968;2023-03-13T12:14:36;17.10;99.90
9975;DHT22;5028;50.974;4.968;2023-03-13T12:17:11;17.30;99.90
9975;DHT22;5028;50.974;4.968;2023-03-13T12:19:52;17.30;99.90
9975;DHT22;5028;50.974;4.968;2023-03-13T12:22:26;17.30;99.90
9975;DHT22;5028;50.974;4.968;2023-03-13T12:25:05;17.30;99.90
9975;DHT22;5028;50.974;4.968;2023-03-13T12:27:42;17.40;99.90
9975;DHT22;5028;50.974;4.968;2023-03-13T12:30:26;17.50;99.90
9975;DHT22;5028;50.974;4.968;2023-03-13T12:33:15;17.50;99.90
9975;DHT22;5028;50.974;4.968;2023-03-13T12:35:55;17.60;99.90
9975;DHT22;5028;50.974;4.968;2023-03-13T12:38:37;17.70;99.90
9975;DHT22;5028;50.974;4.968;2023-03-13T12:41:18;17.90;99.90
9975;DHT22;5028;50.974;4.968;2023-03-13T12:43:54;17.80;99.90
9975;DHT22;5028;50.974;4.968;2023-03-13T12:46:37;17.90;99.90
9975;DHT22;5028;50.974;4.968;2023-03-13T12:52:46;18.20;99.90
9975;DHT22;5028;50.974;4.968;2023-03-13T12:55:34;17.90;99.90
9975;DHT22;5028;50.974;4.968;2023-03-13T13:01:02;17.30;99.90
9975;DHT22;5028;50.974;4.968;2023-03-13T13:03:34;17.10;99.90
9975;DHT22;5028;50.974;4.968;2023-03-13T13:06:13;17.20;99.90
9975;DHT22;5028;50.974;4.968;2023-03-13T13:08:47;17.30;99.90
9975;DHT22;5028;50.974;4.968;2023-03-13T13:11:57;17.30;99.90
9975;DHT22;5028;50.974;4.968;2023-03-13T13:14:58;17.30;99.90
9975;DHT22;5028;50.974;4.968;2023-03-13T13:17:50;17.60;99.90
9975;DHT22;5028;50.974;4.968;2023-03-13T13:20:42;17.60;99.90
9975;DHT22;5028;50.974;4.968;2023-03-13T13:23:32;17.50;99.90
9975;DHT22;5028;50.974;4.968;2023-03-13T13:35:31;17.10;99.90
9975;DHT22;5028;50.974;4.968;2023-03-13T13:38:28;17.20;99.90
9975;DHT22;5028;50.974;4.968;2023-03-13T13:41:32;17.10;99.90
9975;DHT22;5028;50.974;4.968;2023-03-13T13:44:21;16.90;99.90
9975;DHT22;5028;50.974;4.968;2023-03-13T13:46:50;16.90;99.90
9975;DHT22;5028;50.974;4.968;2023-03-13T13:49:50;17.00;99.90
9975;DHT22;5028;50.974;4.968;2023-03-13T13:52:38;17.00;99.90
9975;DHT22;5028;50.974;4.968;2023-03-13T13:55:40;16.80;99.90
9975;DHT22;5028;50.974;4.968;2023-03-13T13:58:17;16.80;99.90
9975;DHT22;5028;50.974;4.968;2023-03-13T14:00:55;16.70;99.90
9975;DHT22;5028;50.974;4.968;2023-03-13T14:03:27;16.70;99.90
9975;DHT22;5028;50.974;4.968;2023-03-13T14:06:16;16.70;99.90
9975;DHT22;5028;50.974;4.968;2023-03-13T14:08:54;16.70;99.90
9975;DHT22;5028;50.974;4.968;2023-03-13T14:11:38;16.80;99.90
9975;DHT22;5028;50.974;4.968;2023-03-13T14:14:16;17.30;99.90
9975;DHT22;5028;50.974;4.968;2023-03-13T14:16:45;17.50;99.90
9975;DHT22;5028;50.974;4.968;2023-03-13T14:19:23;17.50;99.90
9975;DHT22;5028;50.974;4.968;2023-03-13T14:21:59;17.50;99.90
9975;DHT22;5028;50.974;4.968;2023-03-13T14:24:35;17.50;99.90
9975;DHT22;5028;50.974;4.968;2023-03-13T14:27:15;17.50;99.90
9975;DHT22;5028;50.974;4.968;2023-03-13T14:29:59;17.60;99.90
9975;DHT22;5028;50.974;4.968;2023-03-13T14:32:34;17.60;99.90
9975;DHT22;5028;50.974;4.968;2023-03-13T14:35:04;17.60;99.90
9975;DHT22;5028;50.974;4.968;2023-03-13T14:37:42;17.50;99.90
9975;DHT22;5028;50.974;4.968;2023-03-13T14:40:20;17.40;99.90
9975;DHT22;5028;50.974;4.968;2023-03-13T14:42:58;17.20;99.90
9975;DHT22;5028;50.974;4.968;2023-03-13T14:45:35;17.10;99.90
9975;DHT22;5028;50.974;4.968;2023-03-13T14:48:13;17.10;99.90
9975;DHT22;5028;50.974;4.968;2023-03-13T14:50:53;17.10;99.90
9975;DHT22;5028;50.974;4.968;2023-03-13T14:53:53;17.20;99.90
9975;DHT22;5028;50.974;4.968;2023-03-13T14:56:33;17.20;99.90
9975;DHT22;5028;50.974;4.968;2023-03-13T14:59:07;17.10;99.90
9975;DHT22;5028;50.974;4.968;2023-03-13T15:01:57;17.10;99.90
9975;DHT22;5028;50.974;4.968;2023-03-13T15:04:56;17.00;99.90
9975;DHT22;5028;50.974;4.968;2023-03-13T15:07:34;16.90;99.90
9975;DHT22;5028;50.974;4.968;2023-03-13T15:10:22;17.00;99.90
9975;DHT22;5028;50.974;4.968;2023-03-13T15:13:14;17.00;99.90
9975;DHT22;5028;50.974;4.968;2023-03-13T15:15:50;16.90;99.90
9975;DHT22;5028;50.974;4.968;2023-03-13T15:18:21;16.80;99.90
9975;DHT22;5028;50.974;4.968;2023-03-13T15:20:58;16.80;99.90
9975;DHT22;5028;50.974;4.968;2023-03-13T15:23:27;16.80;99.90
9975;DHT22;5028;50.974;4.968;2023-03-13T15:26:04;16.90;99.90
9975;DHT22;5028;50.974;4.968;2023-03-13T15:28:40;16.70;99.90
9975;DHT22;5028;50.974;4.968;2023-03-13T15:31:10;16.60;99.90
9975;DHT22;5028;50.974;4.968;2023-03-13T15:33:47;16.70;99.90
9975;DHT22;5028;50.974;4.968;2023-03-13T15:36:21;16.60;99.90
9975;DHT22;5028;50.974;4.968;2023-03-13T15:38:56;16.60;99.90
9975;DHT22;5028;50.974;4.968;2023-03-13T15:41:27;16.60;99.90
9975;DHT22;5028;50.974;4.968;2023-03-13T15:43:55;16.60;99.90
9975;DHT22;5028;50.974;4.968;2023-03-13T15:46:31;16.60;99.90
9975;DHT22;5028;50.974;4.968;2023-03-13T15:49:00;16.70;99.90
9975;DHT22;5028;50.974;4.968;2023-03-13T15:51:36;16.60;99.90
9975;DHT22;5028;50.974;4.968;2023-03-13T15:54:11;16.60;99.90
9975;DHT22;5028;50.974;4.968;2023-03-13T15:56:41;16.50;99.90
9975;DHT22;5028;50.974;4.968;2023-03-13T15:59:16;16.50;99.90
9975;DHT22;5028;50.974;4.968;2023-03-13T16:01:51;16.50;99.90
9975;DHT22;5028;50.974;4.968;2023-03-13T16:04:20;16.50;99.90
9975;DHT22;5028;50.974;4.968;2023-03-13T16:06:55;16.50;99.90
9975;DHT22;5028;50.974;4.968;2023-03-13T16:09:24;16.50;99.90
9975;DHT22;5028;50.974;4.968;2023-03-13T16:12:13;16.40;99.90
9975;DHT22;5028;50.974;4.968;2023-03-13T16:14:48;16.40;99.90
9975;DHT22;5028;50.974;4.968;2023-03-13T16:17:18;16.40;99.90
9975;DHT22;5028;50.974;4.968;2023-03-13T16:19:54;16.30;99.90
9975;DHT22;5028;50.974;4.968;2023-03-13T16:22:29;16.20;99.90
9975;DHT22;5028;50.974;4.968;2023-03-13T16:24:58;16.10;99.90
9975;DHT22;5028;50.974;4.968;2023-03-13T16:27:35;16.00;99.90
9975;DHT22;5028;50.974;4.968;2023-03-13T16:30:10;16.00;99.90
9975;DHT22;5028;50.974;4.968;2023-03-13T16:32:46;15.90;99.90
9975;DHT22;5028;50.974;4.968;2023-03-13T16:35:21;15.90;99.90
9975;DHT22;5028;50.974;4.968;2023-03-13T16:37:50;15.80;99.90
9975;DHT22;5028;50.974;4.968;2023-03-13T16:40:28;15.80;99.90
9975;DHT22;5028;50.974;4.968;2023-03-13T16:42:59;15.70;99.90
9975;DHT22;5028;50.974;4.968;2023-03-13T16:45:34;15.70;99.90
9975;DHT22;5028;50.974;4.968;2023-03-13T16:48:03;15.60;99.90
9975;DHT22;5028;50.974;4.968;2023-03-13T16:50:38;15.60;99.90
9975;DHT22;5028;50.974;4.968;2023-03-13T16:53:13;15.50;99.90
9975;DHT22;5028;50.974;4.968;2023-03-13T16:55:41;15.50;99.90
9975;DHT22;5028;50.974;4.968;2023-03-13T16:58:18;15.40;99.90
9975;DHT22;5028;50.974;4.968;2023-03-13T17:00:53;15.40;99.90
9975;DHT22;5028;50.974;4.968;2023-03-13T17:03:31;15.30;99.90
9975;DHT22;5028;50.974;4.968;2023-03-13T17:06:13;15.30;99.90
9975;DHT22;5028;50.974;4.968;2023-03-13T17:08:43;15.20;99.90
9975;DHT22;5028;50.974;4.968;2023-03-13T17:11:20;15.20;99.90
9975;DHT22;5028;50.974;4.968;2023-03-13T17:13:57;15.10;99.90
9975;DHT22;5028;50.974;4.968;2023-03-13T17:16:33;15.10;99.90
9975;DHT22;5028;50.974;4.968;2023-03-13T17:19:13;15.10;99.90
9975;DHT22;5028;50.974;4.968;2023-03-13T17:21:43;15.10;99.90